Thunder radar more information blitzortung!


Radar de pluja more information rain snow radar


Visita la nostra xarxa de llocs de meteo:

Template documentation
and downloads

And another site



No particular awareness of the weather is required.    There are no Weather-warnings

Pagina Historial Weather Underground text

Diari Resum May 30, 2017 Unitats:  Mètric    Imperial   Tant
« Previous Dia
SegĂźent Dia »
Diari Setmana Mensual Anual Personalitzada
  Maxima: Minima: Media:
Temperatura: 22.7 °C 15.3 °C 19.6 °C
Punt de rosada: 13.8 °C 7.6 °C 10.2 °C
Humitat: 78 % 43 % 55 %
Wind Speed: 14.8 km/h 0.0 km/h 5.3 km/h
RĂ fegues de vent: 16.1 km/h - -
Vent:- - East
Pression baro: 1018.8 hPa 1013.8 hPa -
Precipitacions: 1.0 mm    
Historical Graphs
 
 
Dades de taula per May 30, 2017
Temps Temperatura Punt de rosada Pression baro Vent Wind Speed RĂ fegues de vent Humitat Rainfall Rate (Hourly)
00:00 19.9 °C 7.6 °C 1014.8 hPa NE 3.7 km/h   45 % 0.0 mm
00:05 16.3 °C 8.0 °C 1013.8 hPa WSW 1.6 km/h 3.2 km/h 58 % 0.0 mm
00:15 16.5 °C 8.2 °C 1013.8 hPa Calm   3.2 km/h 58 % 0.0 mm
00:25 16.5 °C 8.2 °C 1013.8 hPa Calm     58 % 0.0 mm
00:35 16.3 °C 8.0 °C 1013.8 hPa Calm   1.6 km/h 58 % 0.0 mm
00:45 16.5 °C 8.4 °C 1014.8 hPa WNW 1.6 km/h 1.6 km/h 59 % 0.0 mm
00:55 16.5 °C 8.4 °C 1014.8 hPa Calm     59 % 0.0 mm
01:05 16.5 °C 8.4 °C 1014.8 hPa NNE 1.6 km/h 3.2 km/h 59 % 0.0 mm
01:15 16.4 °C 8.4 °C 1014.8 hPa NNE 3.2 km/h 4.8 km/h 59 % 0.0 mm
01:25 16.3 °C 8.3 °C 1014.8 hPa NE 1.6 km/h 4.8 km/h 59 % 0.0 mm
01:35 16.4 °C 8.1 °C 1014.8 hPa NE 3.2 km/h 3.2 km/h 58 % 0.0 mm
01:45 16.4 °C 8.1 °C 1014.8 hPa NNE 1.6 km/h 3.2 km/h 58 % 0.0 mm
01:55 16.2 °C 7.9 °C 1014.8 hPa NE 3.2 km/h 4.8 km/h 58 % 0.0 mm
02:05 16.1 °C 7.8 °C 1014.8 hPa NE 3.2 km/h 3.2 km/h 58 % 0.0 mm
02:15 16.2 °C 8.4 °C 1015.8 hPa NNW 4.8 km/h 4.8 km/h 60 % 0.0 mm
02:25 16.4 °C 8.6 °C 1014.8 hPa NNE 1.6 km/h 4.8 km/h 60 % 0.0 mm
02:35 16.2 °C 8.7 °C 1014.8 hPa NNE 3.2 km/h 4.8 km/h 61 % 0.0 mm
02:45 16.1 °C 8.8 °C 1015.8 hPa Calm   4.8 km/h 62 % 0.0 mm
02:55 16.3 °C 9.0 °C 1015.8 hPa SSE 3.2 km/h 4.8 km/h 62 % 0.0 mm
03:05 16.3 °C 9.0 °C 1015.8 hPa Calm   3.2 km/h 62 % 0.0 mm
03:15 16.3 °C 9.2 °C 1015.8 hPa NNE 1.6 km/h 3.2 km/h 63 % 0.0 mm
03:25 15.9 °C 9.6 °C 1015.8 hPa NNE 4.8 km/h 6.4 km/h 66 % 0.0 mm
03:35 15.6 °C 9.9 °C 1015.8 hPa NNE 4.8 km/h 6.4 km/h 69 % 0.0 mm
03:45 15.5 °C 10.1 °C 1015.8 hPa NE 8.0 km/h 9.7 km/h 70 % 0.0 mm
03:55 15.5 °C 11.3 °C 1015.8 hPa NE 11.3 km/h 16.1 km/h 76 % 0.0 mm
04:05 15.4 °C 11.0 °C 1015.8 hPa NNE 1.6 km/h 6.4 km/h 75 % 0.0 mm
04:15 15.3 °C 11.5 °C 1015.8 hPa NW 1.6 km/h 6.4 km/h 78 % 0.0 mm
04:25 15.5 °C 11.7 °C 1015.8 hPa West 4.8 km/h 6.4 km/h 78 % 1.0 mm
04:35 15.6 °C 11.6 °C 1015.8 hPa NNE 1.6 km/h 4.8 km/h 77 % 1.0 mm
04:45 16.0 °C 11.9 °C 1015.8 hPa NNE 3.2 km/h 4.8 km/h 77 % 0.0 mm
04:55 16.2 °C 12.2 °C 1015.8 hPa NE 3.2 km/h 8.0 km/h 77 % 0.0 mm
05:05 16.3 °C 12.4 °C 1015.8 hPa NE 1.6 km/h 4.8 km/h 78 % 0.0 mm
05:15 16.3 °C 12.3 °C 1015.8 hPa North 1.6 km/h 9.7 km/h 77 % 0.0 mm
05:25 16.3 °C 12.1 °C 1015.8 hPa NNE 1.6 km/h 3.2 km/h 76 % 0.0 mm
05:35 16.5 °C 12.3 °C 1015.8 hPa NE 3.2 km/h 4.8 km/h 76 % 0.0 mm
05:45 17.0 °C 12.3 °C 1015.8 hPa NE 1.6 km/h 6.4 km/h 74 % 0.0 mm
05:50 17.0 °C 12.3 °C 1015.8 hPa NE 4.8 km/h 8.0 km/h 74 % 0.0 mm
10:51 17.0 °C 12.1 °C 1016.8 hPa NE 5.6 km/h 6.1 km/h 73 % 1.0 mm
10:56 17.1 °C 12.2 °C 1016.8 hPa East 6.1 km/h 6.1 km/h 73 % 1.0 mm
11:01 17.2 °C 12.3 °C 1016.8 hPa ENE 3.7 km/h 3.7 km/h 73 % 1.0 mm
11:06 17.7 °C 12.8 °C 1015.8 hPa ENE 4.2 km/h   73 % 0.0 mm
11:11 17.9 °C 13.0 °C 1015.8 hPa ENE 5.6 km/h 5.6 km/h 73 % 0.0 mm
11:12 18.0 °C 13.1 °C 1015.8 hPa NNE 4.2 km/h 4.7 km/h 73 % 0.0 mm
11:17 18.2 °C 13.1 °C 1015.8 hPa NNE 7.4 km/h 7.4 km/h 72 % 0.0 mm
11:22 18.7 °C 13.6 °C 1015.8 hPa ENE 5.6 km/h 5.6 km/h 72 % 0.0 mm
11:27 18.8 °C 13.4 °C 1015.8 hPa WNW 9.3 km/h 9.3 km/h 71 % 0.0 mm
11:32 19.2 °C 13.6 °C 1015.8 hPa NE 5.6 km/h 5.6 km/h 70 % 0.0 mm
11:37 19.3 °C 13.4 °C 1015.8 hPa ENE 3.7 km/h 4.2 km/h 69 % 0.0 mm
11:42 19.6 °C 13.8 °C 1015.8 hPa NNW 5.6 km/h 5.6 km/h 69 % 0.0 mm
11:47 19.6 °C 13.6 °C 1015.8 hPa North 5.6 km/h 5.6 km/h 68 % 0.0 mm
11:52 19.6 °C 13.6 °C 1015.8 hPa ENE 9.3 km/h 9.3 km/h 68 % 0.0 mm
11:57 19.7 °C 13.6 °C 1015.8 hPa ENE 5.6 km/h 5.6 km/h 68 % 0.0 mm
12:02 19.9 °C 13.6 °C 1015.8 hPa ENE 3.7 km/h 3.7 km/h 67 % 0.0 mm
12:07 20.1 °C 13.6 °C 1015.8 hPa NNW 3.7 km/h 3.7 km/h 66 % 0.0 mm
12:12 20.3 °C 13.3 °C 1015.8 hPa NNE 3.7 km/h 3.7 km/h 64 % 0.0 mm
12:17 20.6 °C 13.6 °C 1015.8 hPa SW 6.4 km/h 6.4 km/h 64 % 0.0 mm
12:22 20.9 °C 13.3 °C 1014.8 hPa WSW 5.0 km/h 5.0 km/h 62 % 0.0 mm
12:27 20.9 °C 13.3 °C 1014.8 hPa NW 5.6 km/h 5.6 km/h 62 % 0.0 mm
12:32 21.0 °C 12.9 °C 1014.8 hPa WSW 3.9 km/h   60 % 0.0 mm
12:37 21.2 °C 12.9 °C 1015.8 hPa West 3.7 km/h 3.7 km/h 59 % 0.0 mm
12:42 21.3 °C 12.7 °C 1015.8 hPa ESE 5.6 km/h 5.6 km/h 58 % 0.0 mm
12:46 21.2 °C 12.6 °C 1015.8 hPa ENE 3.7 km/h 3.7 km/h 58 % 0.0 mm
12:51 20.9 °C 12.1 °C 1015.8 hPa NE 7.4 km/h 7.4 km/h 57 % 0.0 mm
12:56 20.9 °C 11.8 °C 1015.8 hPa ENE 7.4 km/h 7.4 km/h 56 % 0.0 mm
13:01 21.1 °C 12.2 °C 1015.8 hPa SSE 4.2 km/h 4.2 km/h 57 % 0.0 mm
13:06 21.2 °C 12.3 °C 1015.8 hPa East 3.7 km/h 3.7 km/h 57 % 0.0 mm
13:11 21.0 °C 11.9 °C 1015.8 hPa East 7.9 km/h 7.9 km/h 56 % 0.0 mm
13:16 20.9 °C 12.1 °C 1015.8 hPa ESE 5.6 km/h 5.6 km/h 57 % 0.0 mm
13:21 20.8 °C 11.7 °C 1015.8 hPa ENE 5.6 km/h 5.6 km/h 56 % 0.0 mm
13:26 20.8 °C 11.4 °C 1015.8 hPa East 7.4 km/h 7.4 km/h 55 % 0.0 mm
13:31 20.9 °C 10.9 °C 1015.8 hPa ESE 9.3 km/h 9.3 km/h 53 % 0.0 mm
13:36 20.9 °C 11.2 °C 1015.8 hPa NE 7.4 km/h 7.4 km/h 54 % 0.0 mm
13:41 20.9 °C 10.9 °C 1015.8 hPa East 11.1 km/h 11.1 km/h 53 % 0.0 mm
13:46 21.1 °C 11.2 °C 1015.8 hPa SE 7.4 km/h 7.4 km/h 53 % 0.0 mm
13:51 21.2 °C 10.9 °C 1015.8 hPa East 9.3 km/h 9.3 km/h 52 % 0.0 mm
13:56 21.4 °C 11.1 °C 1015.8 hPa SSE 7.4 km/h 7.4 km/h 52 % 0.0 mm
14:01 21.8 °C 11.5 °C 1015.8 hPa ESE 6.4 km/h 6.4 km/h 52 % 0.0 mm
14:06 21.6 °C 11.0 °C 1016.8 hPa SSE 11.1 km/h 11.1 km/h 51 % 0.0 mm
14:11 21.5 °C 10.6 °C 1016.8 hPa East 9.3 km/h 9.3 km/h 50 % 0.0 mm
14:16 21.5 °C 10.6 °C 1016.8 hPa East 14.8 km/h 14.8 km/h 50 % 0.0 mm
14:21 21.4 °C 10.2 °C 1016.8 hPa ESE 13.0 km/h 13.0 km/h 49 % 0.0 mm
14:26 21.3 °C 10.4 °C 1016.8 hPa East 9.3 km/h 9.3 km/h 50 % 0.0 mm
14:31 21.4 °C 10.6 °C 1016.8 hPa East 9.3 km/h 9.3 km/h 50 % 0.0 mm
14:36 21.5 °C 10.6 °C 1016.8 hPa East 9.3 km/h 9.3 km/h 50 % 0.0 mm
14:41 21.6 °C 11.0 °C 1016.8 hPa ESE 6.1 km/h 6.1 km/h 51 % 0.0 mm
14:46 21.7 °C 10.8 °C 1016.8 hPa SE 9.3 km/h 9.3 km/h 50 % 0.0 mm
14:51 21.9 °C 11.3 °C 1016.8 hPa SSE 5.6 km/h 5.6 km/h 51 % 0.0 mm
14:56 22.0 °C 11.1 °C 1016.8 hPa SE 9.3 km/h 9.3 km/h 50 % 0.0 mm
15:01 22.0 °C 11.1 °C 1016.8 hPa SE 9.3 km/h 9.3 km/h 50 % 0.0 mm
15:06 21.8 °C 10.9 °C 1016.8 hPa SW 9.3 km/h 9.3 km/h 50 % 0.0 mm
15:11 21.5 °C 10.3 °C 1016.8 hPa East 7.4 km/h 7.4 km/h 49 % 0.0 mm
15:16 21.5 °C 10.3 °C 1016.8 hPa SE 7.4 km/h 7.4 km/h 49 % 0.0 mm
15:21 21.8 °C 10.9 °C 1016.8 hPa ESE 3.9 km/h 3.9 km/h 50 % 0.0 mm
15:26 21.7 °C 10.5 °C 1016.8 hPa ESE 8.7 km/h 8.7 km/h 49 % 0.0 mm
15:31 21.6 °C 10.4 °C 1016.8 hPa East 5.6 km/h 5.6 km/h 49 % 0.0 mm
15:36 21.8 °C 10.6 °C 1016.8 hPa SSE 3.9 km/h 3.9 km/h 49 % 0.0 mm
15:41 22.2 °C 11.3 °C 1016.8 hPa SW 5.6 km/h 5.6 km/h 50 % 0.0 mm
15:46 22.3 °C 11.4 °C 1016.8 hPa East 3.9 km/h   50 % 0.0 mm
15:52 22.1 °C 10.9 °C 1016.8 hPa NE 7.4 km/h 7.4 km/h 49 % 0.0 mm
15:57 22.1 °C 10.9 °C 1016.8 hPa NE 5.6 km/h 5.6 km/h 49 % 0.0 mm
16:02 22.1 °C 10.9 °C 1016.8 hPa NE 5.0 km/h 5.0 km/h 49 % 0.0 mm
16:07 22.0 °C 10.8 °C 1015.8 hPa ENE 5.6 km/h 5.6 km/h 49 % 0.0 mm
16:12 22.0 °C 10.8 °C 1015.8 hPa ESE 11.1 km/h 11.1 km/h 49 % 0.0 mm
16:17 22.0 °C 10.8 °C 1015.8 hPa ESE 9.3 km/h 9.3 km/h 49 % 0.0 mm
16:22 22.4 °C 11.2 °C 1016.8 hPa SE 3.7 km/h 3.7 km/h 49 % 0.0 mm
16:27 22.7 °C 11.4 °C 1016.8 hPa SSE 3.2 km/h 3.2 km/h 49 % 0.0 mm
16:32 22.6 °C 11.3 °C 1016.8 hPa ESE 3.7 km/h 3.7 km/h 49 % 0.0 mm
16:37 22.4 °C 11.2 °C 1016.8 hPa NNE 12.2 km/h 12.2 km/h 49 % 0.0 mm
16:42 22.3 °C 11.1 °C 1016.8 hPa ENE 7.4 km/h 7.4 km/h 49 % 0.0 mm
16:47 22.3 °C 11.1 °C 1016.8 hPa NNE 9.3 km/h 9.3 km/h 49 % 0.0 mm
16:52 22.2 °C 11.0 °C 1016.8 hPa NE 9.3 km/h 9.3 km/h 49 % 0.0 mm
16:57 22.2 °C 10.7 °C 1016.8 hPa NNE 9.3 km/h 9.3 km/h 48 % 0.0 mm
17:02 22.2 °C 10.7 °C 1016.8 hPa NE 9.5 km/h 9.5 km/h 48 % 0.0 mm
17:07 22.3 °C 10.4 °C 1015.8 hPa East 7.4 km/h 7.4 km/h 47 % 0.0 mm
17:12 22.2 °C 10.3 °C 1015.8 hPa East 9.3 km/h 9.3 km/h 47 % 0.0 mm
17:17 22.3 °C 10.4 °C 1015.8 hPa NE 7.9 km/h 7.9 km/h 47 % 0.0 mm
17:22 22.3 °C 10.4 °C 1016.8 hPa NE 9.3 km/h 9.3 km/h 47 % 0.0 mm
17:27 22.1 °C 10.3 °C 1016.8 hPa ESE 7.4 km/h 7.4 km/h 47 % 0.0 mm
17:32 22.1 °C 9.9 °C 1016.8 hPa ESE 13.0 km/h 13.0 km/h 46 % 0.0 mm
17:37 22.1 °C 9.9 °C 1016.8 hPa SSE 9.3 km/h 9.3 km/h 46 % 0.0 mm
17:42 22.2 °C 10.0 °C 1016.8 hPa NE 13.0 km/h 13.0 km/h 46 % 0.0 mm
17:47 22.2 °C 10.3 °C 1016.8 hPa East 5.6 km/h 5.6 km/h 47 % 0.0 mm
17:52 22.3 °C 10.1 °C 1016.8 hPa East 7.4 km/h 7.4 km/h 46 % 0.0 mm
17:57 22.4 °C 10.6 °C 1016.8 hPa ESE 3.7 km/h 3.7 km/h 47 % 0.0 mm
18:02 22.4 °C 10.2 °C 1016.8 hPa ENE 3.9 km/h 3.9 km/h 46 % 0.0 mm
18:07 22.5 °C 10.3 °C 1016.8 hPa NNE 5.6 km/h 5.6 km/h 46 % 0.0 mm
18:12 22.5 °C 10.3 °C 1016.8 hPa ENE 5.6 km/h 5.6 km/h 46 % 0.0 mm
18:17 22.6 °C 10.4 °C 1016.8 hPa NE 9.3 km/h 9.3 km/h 46 % 0.0 mm
18:22 22.6 °C 10.4 °C 1015.8 hPa ESE 11.1 km/h 11.1 km/h 46 % 0.0 mm
18:27 22.5 °C 10.3 °C 1015.8 hPa NNE 9.3 km/h 9.3 km/h 46 % 0.0 mm
18:32 22.5 °C 10.3 °C 1015.8 hPa ENE 7.4 km/h 7.4 km/h 46 % 0.0 mm
18:37 22.4 °C 10.2 °C 1015.8 hPa ESE 7.4 km/h 7.4 km/h 46 % 0.0 mm
18:42 22.3 °C 9.8 °C 1015.8 hPa East 9.3 km/h 9.3 km/h 45 % 0.0 mm
18:47 22.3 °C 9.8 °C 1015.8 hPa ESE 7.4 km/h 7.4 km/h 45 % 0.0 mm
18:52 22.3 °C 10.1 °C 1015.8 hPa ENE 9.5 km/h 9.5 km/h 46 % 0.0 mm
18:57 22.4 °C 9.9 °C 1015.8 hPa ENE 7.4 km/h 7.4 km/h 45 % 0.0 mm
19:02 22.4 °C 9.9 °C 1015.8 hPa ENE 7.4 km/h 7.4 km/h 45 % 0.0 mm
19:07 22.4 °C 9.9 °C 1015.8 hPa East 9.3 km/h 9.3 km/h 45 % 0.0 mm
19:12 22.4 °C 9.6 °C 1015.8 hPa NNE 9.3 km/h 9.3 km/h 44 % 0.0 mm
19:15 17.6 °C 9.0 °C 1017.8 hPa Calm   3.2 km/h 57 % 0.0 mm
19:17 22.5 °C 9.6 °C 1015.8 hPa ENE 10.3 km/h 10.3 km/h 44 % 0.0 mm
19:22 22.5 °C 9.6 °C 1015.8 hPa ESE 7.4 km/h 7.4 km/h 44 % 0.0 mm
19:25 17.6 °C 9.2 °C 1016.8 hPa Calm     58 % 0.0 mm
19:27 22.4 °C 9.6 °C 1015.8 hPa ENE 9.3 km/h 9.3 km/h 44 % 0.0 mm
19:32 22.4 °C 9.6 °C 1015.8 hPa ESE 7.9 km/h 7.9 km/h 44 % 0.0 mm
19:35 17.4 °C 9.1 °C 1016.8 hPa Calm     58 % 0.0 mm
19:37 22.3 °C 9.4 °C 1014.8 hPa East 11.1 km/h 11.1 km/h 44 % 0.0 mm
19:42 22.3 °C 9.4 °C 1014.8 hPa ENE 13.0 km/h 13.0 km/h 44 % 0.0 mm
19:45 17.0 °C 8.9 °C 1017.8 hPa WSW 3.2 km/h 3.2 km/h 59 % 0.0 mm
19:47 22.3 °C 9.1 °C 1014.8 hPa East 14.8 km/h 14.8 km/h 43 % 0.0 mm
19:52 22.2 °C 9.0 °C 1015.8 hPa SE 7.4 km/h 7.4 km/h 43 % 0.0 mm
19:55 16.9 °C 9.3 °C 1017.8 hPa Calm   4.8 km/h 61 % 0.0 mm
19:57 22.1 °C 8.9 °C 1015.8 hPa ESE 11.1 km/h 11.1 km/h 43 % 0.0 mm
20:02 22.1 °C 8.9 °C 1015.8 hPa ESE 13.0 km/h 13.0 km/h 43 % 0.0 mm
20:05 16.9 °C 9.3 °C 1017.8 hPa Calm   1.6 km/h 61 % 0.0 mm
20:07 22.0 °C 8.8 °C 1015.8 hPa ENE 11.1 km/h 11.1 km/h 43 % 0.0 mm
20:12 22.0 °C 8.8 °C 1015.8 hPa ESE 9.3 km/h 9.3 km/h 43 % 0.0 mm
20:15 16.9 °C 9.6 °C 1017.8 hPa Calm     62 % 0.0 mm
20:17 21.9 °C 8.7 °C 1015.8 hPa ESE 9.3 km/h 9.3 km/h 43 % 0.0 mm
20:22 21.7 °C 8.9 °C 1015.8 hPa ESE 7.4 km/h 7.4 km/h 44 % 0.0 mm
20:24 21.7 °C 8.6 °C 1015.8 hPa East 9.3 km/h 9.3 km/h 43 % 0.0 mm
20:25 16.8 °C 9.5 °C 1017.8 hPa Calm     62 % 0.0 mm
20:29 21.5 °C 8.7 °C 1015.8 hPa ESE 7.4 km/h 7.4 km/h 44 % 0.0 mm
20:34 21.4 °C 8.6 °C 1015.8 hPa ENE 3.7 km/h 3.7 km/h 44 % 0.0 mm
20:35 16.6 °C 9.5 °C 1017.8 hPa Calm   1.6 km/h 63 % 0.0 mm
20:39 21.3 °C 8.6 °C 1015.8 hPa East 9.3 km/h 9.3 km/h 44 % 0.0 mm
20:44 21.2 °C 8.8 °C 1015.8 hPa East 9.3 km/h 9.3 km/h 45 % 0.0 mm
20:45 16.6 °C 9.5 °C 1016.8 hPa Calm   1.6 km/h 63 % 0.0 mm
20:49 21.1 °C 8.7 °C 1015.8 hPa SE 9.3 km/h 9.3 km/h 45 % 0.0 mm
20:54 21.0 °C 8.6 °C 1015.8 hPa ESE 5.0 km/h 5.0 km/h 45 % 0.0 mm
20:55 16.7 °C 9.6 °C 1017.8 hPa Calm   3.2 km/h 63 % 0.0 mm
20:59 20.9 °C 8.8 °C 1015.8 hPa SSE 5.6 km/h 5.6 km/h 46 % 0.0 mm
21:04 20.7 °C 8.7 °C 1015.8 hPa SE 6.4 km/h 6.4 km/h 46 % 0.0 mm
21:05 16.6 °C 9.5 °C 1017.8 hPa NNW 1.6 km/h 3.2 km/h 63 % 0.0 mm
21:09 20.6 °C 8.6 °C 1015.8 hPa ESE 5.6 km/h 5.6 km/h 46 % 0.0 mm
21:14 20.5 °C 8.5 °C 1015.8 hPa SSE 7.4 km/h 7.4 km/h 46 % 0.0 mm
21:15 17.1 °C 9.5 °C 1017.8 hPa NNW 3.2 km/h 4.8 km/h 61 % 0.0 mm
21:19 20.4 °C 8.4 °C 1015.8 hPa ESE 5.6 km/h 5.6 km/h 46 % 0.0 mm
21:24 20.3 °C 8.3 °C 1015.8 hPa Calm     46 % 0.0 mm
21:25 17.1 °C 9.5 °C 1017.8 hPa NNE 3.2 km/h 4.8 km/h 61 % 0.0 mm
21:29 20.2 °C 8.5 °C 1015.8 hPa ENE 1.9 km/h 2.3 km/h 47 % 0.0 mm
21:34 20.1 °C 8.4 °C 1015.8 hPa ENE 3.7 km/h 3.7 km/h 47 % 0.0 mm
21:35 17.1 °C 9.5 °C 1017.8 hPa NE 3.2 km/h 4.8 km/h 61 % 0.0 mm
21:39 20.0 °C 8.3 °C 1015.8 hPa NNE 1.9 km/h 1.9 km/h 47 % 0.0 mm
21:44 19.9 °C 8.6 °C 1015.8 hPa NNE 3.7 km/h 3.7 km/h 48 % 0.0 mm
21:45 17.2 °C 9.8 °C 1017.8 hPa NNE 4.8 km/h 9.7 km/h 62 % 0.0 mm
21:49 19.7 °C 8.4 °C 1015.8 hPa NNE 2.3 km/h 2.3 km/h 48 % 0.0 mm
21:54 19.6 °C 8.3 °C 1015.8 hPa NNE 3.7 km/h 3.7 km/h 48 % 0.0 mm
21:55 17.1 °C 10.0 °C 1017.8 hPa NNE 8.0 km/h 8.0 km/h 63 % 0.0 mm
21:59 19.5 °C 8.2 °C 1015.8 hPa Calm     48 % 0.0 mm
22:04 19.4 °C 8.1 °C 1015.8 hPa NNE 1.4 km/h   48 % 0.0 mm
22:05 17.0 °C 9.9 °C 1017.8 hPa NE 8.0 km/h 9.7 km/h 63 % 0.0 mm
22:09 19.2 °C 8.2 °C 1016.8 hPa Calm     49 % 0.0 mm
22:14 19.0 °C 8.1 °C 1016.8 hPa North 1.9 km/h   49 % 0.0 mm
22:15 17.0 °C 9.9 °C 1017.8 hPa NE 8.0 km/h 8.0 km/h 63 % 0.0 mm
22:19 18.9 °C 8.2 °C 1016.8 hPa Calm     50 % 0.0 mm
22:24 18.8 °C 8.2 °C 1017.8 hPa Calm     50 % 0.0 mm
22:25 16.9 °C 10.1 °C 1017.8 hPa NE 4.8 km/h 8.0 km/h 64 % 0.0 mm
22:29 18.7 °C 8.1 °C 1017.8 hPa NNE 3.7 km/h 3.7 km/h 50 % 0.0 mm
22:34 18.8 °C 8.4 °C 1017.8 hPa NNE 5.6 km/h 5.6 km/h 51 % 0.0 mm
22:35 16.8 °C 9.9 °C 1017.8 hPa NNE 3.2 km/h 9.7 km/h 64 % 0.0 mm
22:39 18.9 °C 8.6 °C 1017.8 hPa NNE 3.7 km/h 3.7 km/h 51 % 0.0 mm
22:44 18.9 °C 8.6 °C 1017.8 hPa NE 3.7 km/h 3.7 km/h 51 % 0.0 mm
22:45 16.7 °C 9.8 °C 1017.8 hPa NNE 3.2 km/h 8.0 km/h 64 % 0.0 mm
22:49 18.9 °C 8.6 °C 1017.8 hPa NE 3.9 km/h 3.9 km/h 51 % 0.0 mm
22:54 18.8 °C 8.4 °C 1017.8 hPa NNE 5.6 km/h 5.6 km/h 51 % 0.0 mm
22:55 16.6 °C 9.8 °C 1018.8 hPa NNE 3.2 km/h 4.8 km/h 64 % 0.0 mm
22:59 18.8 °C 8.4 °C 1017.8 hPa NNE 3.7 km/h 3.7 km/h 51 % 0.0 mm
23:04 18.7 °C 8.6 °C 1017.8 hPa NE 2.3 km/h 2.3 km/h 52 % 0.0 mm
23:05 16.6 °C 9.8 °C 1018.8 hPa NE 3.2 km/h 6.4 km/h 64 % 0.0 mm
23:09 18.6 °C 8.6 °C 1018.8 hPa NNE 1.9 km/h 1.9 km/h 52 % 0.0 mm
23:14 18.5 °C 8.4 °C 1018.8 hPa NNW 1.4 km/h   52 % 0.0 mm
23:15 16.6 °C 9.5 °C 1017.8 hPa NNE 1.6 km/h 6.4 km/h 63 % 0.0 mm
23:19 18.5 °C 8.7 °C 1018.8 hPa NNE 1.9 km/h 1.9 km/h 53 % 0.0 mm
23:24 18.5 °C 8.7 °C 1017.8 hPa NE 1.9 km/h   53 % 0.0 mm
23:25 16.2 °C 9.4 °C 1017.8 hPa West 1.6 km/h 4.8 km/h 64 % 0.0 mm
23:29 18.4 °C 8.9 °C 1017.8 hPa Calm     54 % 0.0 mm
23:34 18.4 °C 8.9 °C 1017.8 hPa Calm     54 % 0.0 mm
23:35 16.1 °C 9.3 °C 1017.8 hPa WSW 1.6 km/h 3.2 km/h 64 % 0.0 mm
23:39 18.3 °C 8.8 °C 1016.8 hPa NNE 1.9 km/h   54 % 0.0 mm
23:44 18.2 °C 9.0 °C 1016.8 hPa NNE 1.9 km/h   55 % 0.0 mm
23:45 16.1 °C 9.3 °C 1017.8 hPa West 1.6 km/h 3.2 km/h 64 % 0.0 mm
23:49 18.1 °C 8.9 °C 1016.8 hPa Calm     55 % 0.0 mm
23:54 18.0 °C 9.1 °C 1017.8 hPa NW 1.9 km/h   56 % 0.0 mm
23:55 15.8 °C 9.2 °C 1017.8 hPa WSW 1.6 km/h 3.2 km/h 65 % 0.0 mm
23:59 17.9 °C 9.0 °C 1017.8 hPa Calm     56 % 0.0 mm
Meteo Sesrovires
Elogis d' Weather Underground - 3.75 mb

Guio original per  Jim McMurry - jmcmurry@mwt.net Adaptat per a la plantilla per  Wim van der Kuil - Leuven-Template.eu

Trobareu la nostra informacio del temps tambe a:

Weather Underground

AWEKAS